createdAt,value
2018-02-17T00:00:28.921Z,43.58
2018-02-17T00:03:02.516Z,39.67
2018-02-17T00:05:36.180Z,40.00
2018-02-17T00:08:10.643Z,35.85
2018-02-17T00:10:45.036Z,42.85
2018-02-17T00:13:22.522Z,48.25
2018-02-17T00:15:56.160Z,50.50
2018-02-17T00:18:29.902Z,45.35
2018-02-17T00:21:04.524Z,84.87
2018-02-17T00:23:38.416Z,70.57
2018-02-17T00:26:13.145Z,99.60
2018-02-17T00:28:46.992Z,71.05
2018-02-17T00:31:20.849Z,62.65
2018-02-17T00:33:55.518Z,49.38
2018-02-17T00:36:29.184Z,37.92
2018-02-17T00:39:04.077Z,63.85
2018-02-17T00:41:39.443Z,38.30
2018-02-17T00:44:13.295Z,50.38
2018-02-17T00:46:47.016Z,44.00
2018-02-17T00:49:21.464Z,56.92
2018-02-17T00:51:55.247Z,69.68
2018-02-17T00:54:29.031Z,55.58
2018-02-17T00:57:02.805Z,41.42
2018-02-17T00:59:38.228Z,33.40
2018-02-17T01:02:13.034Z,47.45
2018-02-17T01:04:46.651Z,38.53
2018-02-17T01:07:20.316Z,41.10
2018-02-17T01:09:55.789Z,37.53
2018-02-17T01:12:29.746Z,51.95
2018-02-17T01:15:03.507Z,41.30
2018-02-17T01:17:37.285Z,40.85
2018-02-17T01:20:11.022Z,54.88
2018-02-17T01:22:44.743Z,35.70
2018-02-17T01:25:18.542Z,43.53
2018-02-17T01:27:52.307Z,36.28
2018-02-17T01:30:26.936Z,38.17
2018-02-17T01:33:00.750Z,33.33
2018-02-17T01:35:34.543Z,39.97
2018-02-17T01:38:09.729Z,27.45
2018-02-17T01:40:43.515Z,37.85
2018-02-17T01:43:18.204Z,39.20
2018-02-17T01:45:53.121Z,36.80
2018-02-17T01:48:28.120Z,43.92
2018-02-17T01:51:02.512Z,29.73
2018-02-17T01:53:36.423Z,29.02
2018-02-17T01:56:10.117Z,27.25
2018-02-17T01:58:44.721Z,31.75
2018-02-17T02:01:18.454Z,28.12
2018-02-17T02:03:52.206Z,28.48
2018-02-17T02:06:26.861Z,28.52
2018-02-17T02:09:01.316Z,86.05
2018-02-17T02:11:35.834Z,33.20
2018-02-17T02:14:09.605Z,62.85
2018-02-17T02:16:44.659Z,57.78
2018-02-17T02:19:20.467Z,49.53
2018-02-17T02:21:54.238Z,31.17
2018-02-17T02:24:27.924Z,32.70
2018-02-17T02:27:02.775Z,28.85
2018-02-17T02:29:36.594Z,26.20
2018-02-17T02:32:12.074Z,25.65
2018-02-17T02:34:46.544Z,29.40
2018-02-17T02:37:21.800Z,29.63
2018-02-17T02:39:56.491Z,30.33
2018-02-17T02:42:30.923Z,31.40
2018-02-17T02:45:05.370Z,33.58
2018-02-17T02:47:39.099Z,25.92
2018-02-17T02:50:12.979Z,28.65
2018-02-17T02:52:48.044Z,29.37
2018-02-17T02:55:21.886Z,24.42
2018-02-17T02:57:56.434Z,32.65
2018-02-17T03:00:31.263Z,24.87
2018-02-17T03:03:06.492Z,25.02
2018-02-17T03:05:41.361Z,34.10
2018-02-17T03:08:14.965Z,29.83
2018-02-17T03:10:48.778Z,26.55
2018-02-17T03:13:22.568Z,26.20
2018-02-17T03:15:58.155Z,19.85
2018-02-17T03:18:32.019Z,34.83
2018-02-17T03:21:05.741Z,30.60
2018-02-17T03:23:39.416Z,20.40
2018-02-17T03:26:13.067Z,23.67
2018-02-17T03:28:47.613Z,25.42
2018-02-17T03:31:22.212Z,19.95
2018-02-17T03:33:55.802Z,35.10
2018-02-17T03:36:29.585Z,61.72
2018-02-17T03:39:03.376Z,48.08
2018-02-17T03:41:38.512Z,67.10
2018-02-17T03:44:13.710Z,47.17
2018-02-17T03:46:48.316Z,57.28
2018-02-17T03:49:24.205Z,39.15
2018-02-17T03:51:57.848Z,36.78
2018-02-17T03:57:11.694Z,26.27
2018-02-17T03:59:46.050Z,20.58
2018-02-17T04:02:19.906Z,17.15
2018-02-17T04:04:53.958Z,15.40
2018-02-17T04:07:27.753Z,31.65
2018-02-17T04:10:02.313Z,21.55
2018-02-17T04:12:36.144Z,21.65
2018-02-17T04:15:09.883Z,20.15
2018-02-17T04:17:44.483Z,22.62
2018-02-17T04:20:18.344Z,16.37
2018-02-17T04:22:52.137Z,18.87
2018-02-17T04:25:25.982Z,24.10
2018-02-17T04:27:59.718Z,23.87
2018-02-17T04:30:34.694Z,21.17
2018-02-17T04:33:08.472Z,24.08
2018-02-17T04:35:43.572Z,20.08
2018-02-17T04:38:17.205Z,16.40
2018-02-17T04:40:52.112Z,21.02
2018-02-17T04:43:26.092Z,18.42
2018-02-17T04:46:02.617Z,22.13
2018-02-17T04:51:44.142Z,21.10
2018-02-17T04:54:25.277Z,17.35
2018-02-17T04:56:59.780Z,18.77
2018-02-17T05:02:45.429Z,83.28
2018-02-17T05:05:38.458Z,26.12
2018-02-17T05:08:12.634Z,46.13
2018-02-17T05:10:47.047Z,29.85
2018-02-17T05:13:21.242Z,37.42
2018-02-17T05:16:20.739Z,27.55
2018-02-17T05:18:57.093Z,28.85
2018-02-17T05:21:35.061Z,41.10
2018-02-17T05:24:13.945Z,34.03
2018-02-17T05:26:59.907Z,30.62
2018-02-17T05:29:35.225Z,31.60
2018-02-17T05:32:11.281Z,33.40
2018-02-17T05:34:52.982Z,28.30
2018-02-17T05:37:29.950Z,37.55
2018-02-17T05:40:04.900Z,27.90
2018-02-17T05:42:42.108Z,39.83
2018-02-17T05:45:18.059Z,33.00
2018-02-17T05:47:55.747Z,34.25
2018-02-17T05:50:32.218Z,32.08
2018-02-17T05:53:06.570Z,28.10
2018-02-17T05:55:40.760Z,34.08
2018-02-17T05:58:14.556Z,39.63
2018-02-17T06:00:49.430Z,35.38
2018-02-17T06:03:23.704Z,31.23
2018-02-17T06:05:58.672Z,31.75
2018-02-17T06:08:34.072Z,35.58
2018-02-17T06:11:08.417Z,28.95
2018-02-17T06:13:43.405Z,34.92
2018-02-17T06:16:18.003Z,27.92
2018-02-17T06:18:51.999Z,34.30
2018-02-17T06:21:27.487Z,60.80
2018-02-17T06:24:03.744Z,38.65
2018-02-17T06:26:37.854Z,30.55
2018-02-17T06:29:12.914Z,48.25
2018-02-17T06:31:46.863Z,34.42
2018-02-17T06:34:22.199Z,27.20
2018-02-17T06:36:57.130Z,29.67
2018-02-17T06:39:31.081Z,42.10
2018-02-17T06:42:06.416Z,35.55
2018-02-17T06:44:41.242Z,42.50
2018-02-17T06:47:16.304Z,24.30
2018-02-17T06:49:50.550Z,32.08
2018-02-17T06:52:24.615Z,26.15
2018-02-17T06:54:58.472Z,33.40
2018-02-17T06:57:32.713Z,53.63
2018-02-17T07:00:06.838Z,51.13
2018-02-17T07:02:40.961Z,139.90
2018-02-17T07:05:15.048Z,92.68
2018-02-17T07:07:48.934Z,109.78
2018-02-17T07:10:23.006Z,92.95
2018-02-17T07:12:57.076Z,56.95
2018-02-17T07:15:31.180Z,40.53
2018-02-17T07:18:05.619Z,149.20
2018-02-17T07:20:40.457Z,97.78
2018-02-17T07:23:14.342Z,50.35
2018-02-17T07:25:49.323Z,56.55
2018-02-17T07:28:23.801Z,39.05
2018-02-17T07:30:58.431Z,21.20
2018-02-17T07:33:33.459Z,20.73
2018-02-17T07:36:07.903Z,19.50
2018-02-17T07:38:42.660Z,28.73
2018-02-17T07:41:17.373Z,24.50
2018-02-17T07:43:52.735Z,20.15
2018-02-17T07:46:27.636Z,21.95
2018-02-17T07:49:02.504Z,16.23
2018-02-17T07:51:36.518Z,21.25
2018-02-17T07:54:11.123Z,26.92
2018-02-17T07:56:46.090Z,18.67
2018-02-17T07:59:20.018Z,23.23
2018-02-17T08:01:54.276Z,18.52
2018-02-17T08:04:28.285Z,21.00
2018-02-17T08:07:02.806Z,19.50
2018-02-17T08:09:37.791Z,18.50
2018-02-17T08:12:11.693Z,23.48
2018-02-17T08:14:45.700Z,20.40
2018-02-17T08:17:19.825Z,22.27
2018-02-17T08:19:53.508Z,23.67
2018-02-17T08:22:27.856Z,30.48
2018-02-17T08:25:02.001Z,16.77
2018-02-17T08:27:35.735Z,19.10
2018-02-17T08:30:09.517Z,34.67
2018-02-17T08:32:44.031Z,21.17
2018-02-17T08:35:23.310Z,16.15
2018-02-17T08:37:57.420Z,20.70
2018-02-17T08:40:31.230Z,21.23
2018-02-17T08:43:05.867Z,19.87
2018-02-17T08:45:41.826Z,60.47
2018-02-17T08:48:16.700Z,18.10
2018-02-17T08:50:50.978Z,34.38
2018-02-17T08:53:25.139Z,147.40
2018-02-17T08:55:59.771Z,163.45
2018-02-17T08:58:33.852Z,244.13
2018-02-17T09:01:07.858Z,108.00
2018-02-17T09:03:41.882Z,82.88
2018-02-17T09:06:17.185Z,46.20
2018-02-17T09:08:50.964Z,29.55
2018-02-17T09:11:25.715Z,30.00
2018-02-17T09:13:59.699Z,44.90
2018-02-17T09:16:33.502Z,14.90
2018-02-17T09:19:07.590Z,17.17
2018-02-17T09:21:41.858Z,16.52
2018-02-17T09:24:15.692Z,26.65
2018-02-17T09:26:50.745Z,21.65
2018-02-17T09:29:25.101Z,23.05
2018-02-17T09:32:01.666Z,25.75
2018-02-17T09:34:35.624Z,21.70
2018-02-17T09:37:09.679Z,21.37
2018-02-17T09:39:43.884Z,27.20
2018-02-17T09:42:18.034Z,25.65
2018-02-17T09:44:52.875Z,20.17
2018-02-17T09:47:26.695Z,18.23
2018-02-17T09:50:00.805Z,20.95
2018-02-17T09:52:35.644Z,23.25
2018-02-17T09:55:09.667Z,26.08
2018-02-17T09:57:43.540Z,30.45
2018-02-17T10:00:18.089Z,22.27
2018-02-17T10:02:52.360Z,16.10
2018-02-17T10:05:26.398Z,20.98
2018-02-17T10:08:00.506Z,25.35
2018-02-17T10:10:35.322Z,70.12
2018-02-17T10:13:10.108Z,245.88
2018-02-17T10:15:44.324Z,250.25
2018-02-17T10:18:19.389Z,182.37
2018-02-17T10:20:54.310Z,68.68
2018-02-17T10:23:29.000Z,36.58
2018-02-17T10:26:03.009Z,16.17
2018-02-17T10:28:37.813Z,18.08
2018-02-17T10:31:11.584Z,23.00
2018-02-17T10:33:46.678Z,24.58
2018-02-17T10:36:20.906Z,23.55
2018-02-17T10:38:54.874Z,26.30
2018-02-17T10:41:29.977Z,43.87
2018-02-17T10:44:03.715Z,24.58
2018-02-17T10:46:38.275Z,20.25
2018-02-17T10:49:12.057Z,21.20
2018-02-17T10:51:45.742Z,22.85
2018-02-17T10:54:19.280Z,19.50
2018-02-17T10:56:52.976Z,20.40
2018-02-17T10:59:26.553Z,29.05
2018-02-17T11:02:00.885Z,23.58
2018-02-17T11:04:34.455Z,26.92
2018-02-17T11:07:08.075Z,32.35
2018-02-17T11:09:41.666Z,18.17
2018-02-17T11:12:15.429Z,54.42
2018-02-17T11:14:48.933Z,48.78
2018-02-17T11:17:22.651Z,24.10
2018-02-17T11:19:56.261Z,45.33
2018-02-17T11:22:30.568Z,27.27
2018-02-17T11:25:04.103Z,28.62
2018-02-17T11:27:37.732Z,47.95
2018-02-17T11:30:12.038Z,51.37
2018-02-17T11:32:45.714Z,52.72
2018-02-17T11:35:19.239Z,34.08
2018-02-17T11:37:52.809Z,32.75
2018-02-17T11:40:27.151Z,26.67
2018-02-17T11:43:00.904Z,29.67
2018-02-17T11:45:34.438Z,27.85
2018-02-17T11:48:08.025Z,22.95
2018-02-17T11:50:42.362Z,27.98
2018-02-17T11:53:15.878Z,41.13
2018-02-17T11:55:49.461Z,23.62
2018-02-17T11:58:23.048Z,24.73
2018-02-17T12:00:57.381Z,20.50
2018-02-17T12:03:30.972Z,25.12
2018-02-17T12:06:04.608Z,35.50
2018-02-17T12:08:38.916Z,30.77
2018-02-17T12:11:12.516Z,24.37
2018-02-17T12:13:46.819Z,140.07
2018-02-17T12:16:20.322Z,27.67
2018-02-17T12:18:53.836Z,51.90
2018-02-17T12:21:31.090Z,25.25
2018-02-17T12:24:04.709Z,31.35
2018-02-17T12:26:38.346Z,46.72
2018-02-17T12:29:11.906Z,86.00
2018-02-17T12:31:45.484Z,56.00
2018-02-17T12:34:19.049Z,30.95
2018-02-17T12:36:52.703Z,25.85
2018-02-17T12:39:26.297Z,22.02
2018-02-17T12:41:59.886Z,22.55
2018-02-17T12:44:34.226Z,57.95
2018-02-17T12:47:07.867Z,28.75
2018-02-17T12:49:41.423Z,28.25
2018-02-17T12:52:14.958Z,23.62
2018-02-17T12:54:48.523Z,24.65
2018-02-17T12:57:22.123Z,35.83
2018-02-17T12:59:55.650Z,26.90
2018-02-17T13:02:29.258Z,31.05
2018-02-17T13:05:02.824Z,37.30
2018-02-17T13:07:37.158Z,25.92
2018-02-17T13:10:10.733Z,30.75
2018-02-17T13:12:45.066Z,19.25
2018-02-17T13:15:18.808Z,21.08
2018-02-17T13:17:52.425Z,24.63
2018-02-17T13:20:26.891Z,31.00
2018-02-17T13:23:00.481Z,34.80
2018-02-17T13:25:34.213Z,94.95
2018-02-17T13:28:07.775Z,53.20
2018-02-17T13:30:41.348Z,35.53
2018-02-17T13:33:14.876Z,45.97
2018-02-17T13:35:48.453Z,46.10
2018-02-17T13:38:22.081Z,44.47
2018-02-17T13:40:55.724Z,30.88
2018-02-17T13:43:29.325Z,25.62
2018-02-17T13:46:03.030Z,33.53
2018-02-17T13:48:36.594Z,24.45
2018-02-17T13:51:10.183Z,26.65
2018-02-17T13:53:43.754Z,24.45
2018-02-17T13:56:17.273Z,30.37
2018-02-17T13:58:51.710Z,28.45
2018-02-17T14:01:25.328Z,31.92
2018-02-17T14:03:58.895Z,22.73
2018-02-17T14:06:32.534Z,31.95
2018-02-17T14:09:06.853Z,51.13
2018-02-17T14:11:40.595Z,37.03
2018-02-17T14:14:14.150Z,34.10
2018-02-17T14:16:47.768Z,29.92
2018-02-17T14:19:21.307Z,35.80
2018-02-17T14:21:54.865Z,30.02
2018-02-17T14:24:29.199Z,29.02
2018-02-17T14:27:02.990Z,32.75
2018-02-17T14:29:36.576Z,29.58
2018-02-17T14:32:10.167Z,28.05
2018-02-17T14:34:43.930Z,47.33
2018-02-17T14:37:17.469Z,101.40
2018-02-17T14:39:51.163Z,39.20
2018-02-17T14:42:24.723Z,22.50
2018-02-17T14:44:58.240Z,24.60
2018-02-17T14:47:32.583Z,23.73
2018-02-17T14:50:06.241Z,22.73
2018-02-17T14:52:40.518Z,22.80
2018-02-17T14:55:14.033Z,22.23
2018-02-17T14:57:47.600Z,25.45
2018-02-17T15:00:21.165Z,19.00
2018-02-17T15:02:54.794Z,18.73
2018-02-17T15:05:28.409Z,20.88
2018-02-17T15:08:02.000Z,19.77
2018-02-17T15:10:35.512Z,19.70
2018-02-17T15:13:09.101Z,21.30
2018-02-17T15:15:42.716Z,17.30
2018-02-17T15:18:16.374Z,26.52
2018-02-17T15:20:50.794Z,21.23
2018-02-17T15:23:24.367Z,18.75
2018-02-17T15:25:58.666Z,19.65
2018-02-17T15:28:32.365Z,19.17
2018-02-17T15:31:05.951Z,22.62
2018-02-17T15:33:39.544Z,42.00
2018-02-17T15:36:13.033Z,33.20
2018-02-17T15:38:46.779Z,34.22
2018-02-17T15:41:20.308Z,37.05
2018-02-17T15:43:53.866Z,33.30
2018-02-17T15:46:27.482Z,20.02
2018-02-17T15:49:01.010Z,14.18
2018-02-17T15:51:34.579Z,20.58
2018-02-17T15:54:08.255Z,18.55
2018-02-17T15:56:41.977Z,16.83
2018-02-17T15:59:15.550Z,18.55
2018-02-17T16:01:49.852Z,21.05
2018-02-17T16:04:23.486Z,22.57
2018-02-17T16:06:56.986Z,14.18
2018-02-17T16:09:30.499Z,17.75
2018-02-17T16:12:04.074Z,12.80
2018-02-17T16:14:37.614Z,13.82
2018-02-17T16:17:11.994Z,14.10
2018-02-17T16:19:45.611Z,16.80
2018-02-17T16:22:19.173Z,15.77
2018-02-17T16:24:52.785Z,17.60
2018-02-17T16:27:26.297Z,17.25
2018-02-17T16:30:00.006Z,15.02
2018-02-17T16:32:33.838Z,17.83
2018-02-17T16:35:07.548Z,31.87
2018-02-17T16:37:41.120Z,50.65
2018-02-17T16:40:14.713Z,53.53
2018-02-17T16:42:48.404Z,58.10
2018-02-17T16:45:21.954Z,24.77
2018-02-17T16:47:55.502Z,26.98
2018-02-17T16:50:29.091Z,17.85
2018-02-17T16:53:02.619Z,15.63
2018-02-17T16:55:36.200Z,22.13
2018-02-17T16:58:09.881Z,19.00
2018-02-17T17:00:43.525Z,17.73
2018-02-17T17:03:17.089Z,17.70
2018-02-17T17:05:50.703Z,20.65
2018-02-17T17:08:25.042Z,23.52
2018-02-17T17:10:58.630Z,28.85
2018-02-17T17:13:32.234Z,29.65
2018-02-17T17:16:06.683Z,18.25
2018-02-17T17:18:40.233Z,15.50
2018-02-17T17:21:13.868Z,35.90
2018-02-17T17:23:47.443Z,25.60
2018-02-17T17:26:21.768Z,18.45
2018-02-17T17:28:55.311Z,18.20
2018-02-17T17:31:29.700Z,23.50
2018-02-17T17:34:03.441Z,14.65
2018-02-17T17:36:36.974Z,42.85
2018-02-17T17:39:11.295Z,57.30
2018-02-17T17:41:44.883Z,78.32
2018-02-17T17:44:18.455Z,51.00
2018-02-17T17:46:52.014Z,24.27
2018-02-17T17:49:25.719Z,26.60
2018-02-17T17:51:59.323Z,25.40
2018-02-17T17:54:32.834Z,21.58
2018-02-17T17:57:06.505Z,23.02
2018-02-17T17:59:40.143Z,27.23
2018-02-17T18:02:13.686Z,27.67
2018-02-17T18:04:47.466Z,23.08
2018-02-17T18:07:21.035Z,28.55
2018-02-17T18:09:55.343Z,29.42
2018-02-17T18:12:29.074Z,21.98
2018-02-17T18:15:02.716Z,18.70
2018-02-17T18:17:36.242Z,22.75
2018-02-17T18:20:09.875Z,20.92
2018-02-17T18:22:43.373Z,20.10
2018-02-17T18:25:16.963Z,20.00
2018-02-17T18:27:51.487Z,24.42
2018-02-17T18:30:25.222Z,27.75
2018-02-17T18:32:58.792Z,25.90
2018-02-17T18:35:32.472Z,20.30
2018-02-17T18:38:05.999Z,21.60
2018-02-17T18:40:39.773Z,41.42
2018-02-17T18:43:13.297Z,36.97
2018-02-17T18:45:46.903Z,27.17
2018-02-17T18:48:20.625Z,35.38
2018-02-17T18:50:54.462Z,21.98
2018-02-17T18:53:28.214Z,66.15
2018-02-17T18:56:01.936Z,20.65
2018-02-17T18:58:35.789Z,14.82
2018-02-17T19:01:09.421Z,14.68
2018-02-17T19:03:43.767Z,10.52
2018-02-17T19:06:18.183Z,14.63
2018-02-17T19:08:51.857Z,12.23
2018-02-17T19:11:25.523Z,11.88
2018-02-17T19:13:59.075Z,11.68
2018-02-17T19:16:33.383Z,14.90
2018-02-17T19:19:07.080Z,16.20
2018-02-17T19:21:40.884Z,10.25
2018-02-17T19:24:14.474Z,12.57
2018-02-17T19:26:48.016Z,10.90
2018-02-17T19:29:21.609Z,14.55
2018-02-17T19:31:55.298Z,11.98
2018-02-17T19:34:28.811Z,13.40
2018-02-17T19:37:03.180Z,17.67
2018-02-17T19:39:37.697Z,19.42
2018-02-17T19:42:11.360Z,35.92
2018-02-17T19:44:45.046Z,29.87
2018-02-17T19:47:18.712Z,20.50
2018-02-17T19:49:52.651Z,13.90
2018-02-17T19:52:27.043Z,10.27
2018-02-17T19:55:00.648Z,11.45
2018-02-17T19:57:34.275Z,16.70
2018-02-17T20:00:07.855Z,13.20
2018-02-17T20:02:41.379Z,20.77
2018-02-17T20:05:14.962Z,13.32
2018-02-17T20:07:48.543Z,17.05
2018-02-17T20:10:22.147Z,17.10
2018-02-17T20:12:55.678Z,16.23
2018-02-17T20:15:29.273Z,22.05
2018-02-17T20:18:02.899Z,18.75
2018-02-17T20:20:36.462Z,19.95
2018-02-17T20:23:10.032Z,15.80
2018-02-17T20:25:43.564Z,14.87
2018-02-17T20:28:17.050Z,14.80
2018-02-17T20:30:50.613Z,14.70
2018-02-17T20:33:24.937Z,14.95
2018-02-17T20:35:58.532Z,16.92
2018-02-17T20:38:32.148Z,12.85
2018-02-17T20:41:06.473Z,21.42
2018-02-17T20:43:40.002Z,24.73
2018-02-17T20:46:13.715Z,58.55
2018-02-17T20:48:47.280Z,60.33
2018-02-17T20:51:20.879Z,14.43
2018-02-17T20:53:54.476Z,14.82
2018-02-17T20:56:27.991Z,17.02
2018-02-17T20:59:01.568Z,16.08
2018-02-17T21:01:35.132Z,22.17
2018-02-17T21:04:08.695Z,19.20
2018-02-17T21:06:42.255Z,30.35
2018-02-17T21:09:15.782Z,19.62
2018-02-17T21:11:49.278Z,17.45
2018-02-17T21:14:22.890Z,19.08
2018-02-17T21:16:57.193Z,16.65
2018-02-17T21:19:30.803Z,21.58
2018-02-17T21:22:04.427Z,19.35
2018-02-17T21:24:38.106Z,19.27
2018-02-17T21:27:11.630Z,22.48
2018-02-17T21:29:45.216Z,21.10
2018-02-17T21:32:19.519Z,21.27
2018-02-17T21:34:53.863Z,24.12
2018-02-17T21:37:27.636Z,19.40
2018-02-17T21:40:01.333Z,16.52
2018-02-17T21:42:34.914Z,23.50
2018-02-17T21:45:08.429Z,46.47
2018-02-17T21:47:41.984Z,40.70
2018-02-17T21:50:16.258Z,26.60
2018-02-17T21:52:49.755Z,21.50
2018-02-17T21:55:23.358Z,22.92
2018-02-17T21:57:57.050Z,22.37
2018-02-17T22:00:30.608Z,30.80
2018-02-17T22:03:04.195Z,23.45
2018-02-17T22:05:38.485Z,34.22
2018-02-17T22:08:12.203Z,24.25
2018-02-17T22:10:45.784Z,31.48
2018-02-17T22:13:19.374Z,36.90
2018-02-17T22:15:53.001Z,32.13
2018-02-17T22:18:26.582Z,24.48
2018-02-17T22:21:00.269Z,26.00
2018-02-17T22:23:34.580Z,23.12
2018-02-17T22:26:08.951Z,19.65
2018-02-17T22:28:43.329Z,26.98
2018-02-17T22:31:17.074Z,20.37
2018-02-17T22:33:50.649Z,24.05
2018-02-17T22:36:24.187Z,22.77
2018-02-17T22:38:57.886Z,20.48
2018-02-17T22:41:31.447Z,23.58
2018-02-17T22:44:05.057Z,28.83
2018-02-17T22:46:38.579Z,57.22
2018-02-17T22:49:12.155Z,97.72
2018-02-17T22:51:45.837Z,46.95
2018-02-17T22:54:19.407Z,24.00
2018-02-17T22:56:53.056Z,30.40
2018-02-17T22:59:26.566Z,25.60
2018-02-17T23:02:00.050Z,23.30
2018-02-17T23:04:33.572Z,24.65
2018-02-17T23:07:07.151Z,22.95
2018-02-17T23:09:40.792Z,27.58
2018-02-17T23:12:14.479Z,25.67
2018-02-17T23:14:48.067Z,28.25
2018-02-17T23:17:21.618Z,28.85
2018-02-17T23:19:55.968Z,25.27
2018-02-17T23:22:29.733Z,26.10
2018-02-17T23:25:03.249Z,28.45
2018-02-17T23:27:36.748Z,29.50
2018-02-17T23:30:10.232Z,24.35
2018-02-17T23:32:43.773Z,29.87
2018-02-17T23:35:17.325Z,28.98
2018-02-17T23:37:50.824Z,25.88
2018-02-17T23:40:24.330Z,30.10
2018-02-17T23:42:58.152Z,21.60
2018-02-17T23:45:31.776Z,32.83
2018-02-17T23:48:05.403Z,67.70
2018-02-17T23:50:38.980Z,95.60
2018-02-17T23:53:12.606Z,35.35
2018-02-17T23:55:46.411Z,37.08
2018-02-17T23:58:20.093Z,32.10
